Time;durP1;ratioP1;P1;durP2;ratioP2;P2;SDS_P1;SDS_P2;PMS_P1;PMS_P2;Temp;Humidity;BMP_temperature;BMP_pressure;BME280_temperature;BME280_humidity;BME280_pressure;Samples;Min_cycle;Max_cycle;Signal;HPM_P1;HPM_P2
2022/08/01 00:00:52;;;;;;;6.50;4.93;;;;;;;17.91;100.00;100397.38;7663198;23;20021;-93
2022/08/01 00:03:54;;;;;;;6.45;4.68;;;;;;;17.97;100.00;100394.88;7635427;23;20028;-93
2022/08/01 00:06:56;;;;;;;9.18;5.15;;;;;;;18.01;100.00;100403.19;7661355;23;20052;-93
2022/08/01 00:09:58;;;;;;;7.15;4.88;;;;;;;18.05;100.00;100399.25;7662841;23;20340;-93
2022/08/01 00:13:00;;;;;;;8.32;4.82;;;;;;;18.05;100.00;100401.88;7662635;23;20091;-94
2022/08/01 00:16:01;;;;;;;6.28;4.40;;;;;;;18.07;100.00;100397.28;7664613;23;20021;-95
2022/08/01 00:19:04;;;;;;;6.68;4.22;;;;;;;18.02;100.00;100402.22;7636162;23;20632;-93
2022/08/01 00:22:07;;;;;;;6.55;4.40;;;;;;;18.00;100.00;100405.00;7664461;23;20063;-96
2022/08/01 00:25:09;;;;;;;5.80;4.15;;;;;;;17.96;100.00;100392.44;7641857;23;20435;-94
2022/08/01 00:28:13;;;;;;;4.53;3.88;;;;;;;17.97;100.00;100394.06;7666686;23;20025;-94
2022/08/01 00:31:15;;;;;;;4.68;3.83;;;;;;;18.03;100.00;100396.81;7667231;23;20021;-94
2022/08/01 00:34:16;;;;;;;3.97;3.25;;;;;;;18.10;100.00;100396.13;7668314;23;20016;-95
2022/08/01 00:37:18;;;;;;;5.18;3.75;;;;;;;18.20;100.00;100402.75;7648016;23;20017;-93
2022/08/01 00:40:21;;;;;;;4.80;3.50;;;;;;;18.25;100.00;100400.44;7624538;23;20463;-94
2022/08/01 00:43:23;;;;;;;5.18;3.72;;;;;;;18.28;100.00;100400.09;7676156;23;20021;-95
2022/08/01 00:46:26;;;;;;;5.15;4.22;;;;;;;18.27;100.00;100403.69;7648972;23;20421;-96
2022/08/01 00:49:28;;;;;;;4.00;3.30;;;;;;;18.22;100.00;100398.16;7671732;23;20021;-94
2022/08/01 00:52:31;;;;;;;4.55;3.45;;;;;;;18.23;100.00;100388.50;7664658;23;20459;-94
2022/08/01 00:55:36;;;;;;;4.47;3.30;;;;;;;18.24;100.00;100398.00;7644047;23;20029;-94
2022/08/01 00:58:39;;;;;;;4.68;3.85;;;;;;;18.34;100.00;100395.16;7667624;23;20478;-96
2022/08/01 01:01:41;;;;;;;5.30;3.80;;;;;;;18.32;100.00;100394.50;7640365;23;20021;-95
2022/08/01 01:04:50;;;;;;;4.80;3.40;;;;;;;18.33;100.00;100399.56;7666501;23;20463;-96
2022/08/01 01:08:16;;;;;;;6.95;3.95;;;;;;;18.35;100.00;100397.59;7643413;23;20025;-96
2022/08/01 01:12:01;;;;;;;5.50;3.85;;;;;;;18.34;100.00;100395.16;7668919;23;20147;-95
2022/08/01 01:15:14;;;;;;;6.57;4.32;;;;;;;18.34;100.00;100397.78;7529087;23;20037;-96
2022/08/01 01:18:24;;;;;;;4.22;3.70;;;;;;;18.29;100.00;100390.44;7498864;23;20482;-96
2022/08/01 01:22:01;;;;;;;5.82;3.55;;;;;;;18.34;100.00;100390.72;7525648;23;20026;-95
2022/08/01 01:25:33;;;;;;;5.82;3.88;;;;;;;18.36;100.00;100393.16;7523575;23;20041;-96
2022/08/01 01:29:03;;;;;;;5.60;3.97;;;;;;;18.37;100.00;100395.59;7478210;23;20388;-96
2022/08/01 01:32:33;;;;;;;6.05;3.72;;;;;;;18.30;100.00;100392.88;7503112;23;20031;-94
2022/08/01 01:35:41;;;;;;;6.40;3.58;;;;;;;18.32;100.00;100400.56;7517767;23;20022;-96
2022/08/01 01:38:45;;;;;;;6.90;3.80;;;;;;;18.28;100.00;100397.47;7467126;23;20371;-96
2022/08/01 01:41:49;;;;;;;6.35;3.42;;;;;;;18.30;100.00;100399.91;7516912;23;20023;-96
2022/08/01 01:44:52;;;;;;;5.47;3.50;;;;;;;18.34;100.00;100401.22;7492299;23;20041;-95
2022/08/01 01:47:56;;;;;;;7.18;3.40;;;;;;;18.32;100.00;100405.00;7517017;23;20034;-96
2022/08/01 01:51:00;;;;;;;5.85;4.00;;;;;;;18.22;100.00;100413.88;7570390;23;20033;-94
2022/08/01 01:54:04;;;;;;;7.10;4.25;;;;;;;18.20;100.00;100405.38;7601021;23;20017;-95
2022/08/01 01:57:09;;;;;;;5.95;4.35;;;;;;;18.12;100.00;100408.06;7630893;23;20151;-95
2022/08/01 02:00:13;;;;;;;6.72;4.90;;;;;;;17.99;100.00;100410.44;7605434;23;20546;-96
2022/08/01 02:03:17;;;;;;;9.50;4.18;;;;;;;17.87;100.00;100410.00;7636721;23;20021;-95
2022/08/01 02:06:21;;;;;;;4.82;3.63;;;;;;;17.77;100.00;100412.00;7607200;23;20030;-94
2022/08/01 02:09:26;;;;;;;2.92;2.38;;;;;;;17.71;100.00;100421.31;7626010;23;20044;-95
2022/08/01 02:12:33;;;;;;;2.72;1.70;;;;;;;17.54;100.00;100412.75;7625499;23;20041;-92
2022/08/01 02:15:39;;;;;;;1.95;1.35;;;;;;;17.49;100.00;100411.59;7597922;23;20029;-88
2022/08/01 02:19:01;;;;;;;2.13;1.10;;;;;;;17.50;100.00;100406.19;7654280;23;20527;-90
2022/08/01 02:22:46;;;;;;;1.98;1.23;;;;;;;17.37;100.00;100411.97;7662180;23;20087;-90
2022/08/01 02:25:57;;;;;;;1.35;1.20;;;;;;;17.30;100.00;100404.97;7661535;23;20156;-91
2022/08/01 02:29:16;;;;;;;2.90;0.90;;;;;;;17.26;100.00;100409.69;7639684;23;20021;-91
2022/08/01 02:32:30;;;;;;;1.33;1.00;;;;;;;17.26;100.00;100420.16;7658086;23;20107;-92
2022/08/01 02:35:35;;;;;;;1.20;1.10;;;;;;;17.24;100.00;100416.91;7662057;23;20025;-93
2022/08/01 02:38:58;;;;;;;2.47;1.13;;;;;;;17.27;100.00;100416.59;7660985;23;20102;-93
2022/08/01 02:42:05;;;;;;;2.65;1.48;;;;;;;17.27;100.00;100418.41;7660852;23;20424;-93
2022/08/01 02:45:11;;;;;;;2.85;1.60;;;;;;;17.27;100.00;100424.44;7632176;23;20466;-93
2022/08/01 02:48:15;;;;;;;3.15;1.65;;;;;;;17.26;100.00;100425.41;7636025;23;20040;-91
2022/08/01 02:51:20;;;;;;;3.55;1.83;;;;;;;17.29;100.00;100426.88;7662965;23;20024;-92
2022/08/01 02:54:23;;;;;;;4.20;2.80;;;;;;;17.30;100.00;100431.13;7661083;23;20024;-92
2022/08/01 02:57:26;;;;;;;5.70;3.25;;;;;;;17.31;100.00;100423.09;7660247;23;20560;-90
2022/08/01 03:00:48;;;;;;;7.15;3.55;;;;;;;17.38;100.00;100429.28;7667707;23;20025;-91
2022/08/01 03:03:50;;;;;;;6.18;3.95;;;;;;;17.36;100.00;100433.88;7638856;23;20504;-89
2022/08/01 03:06:58;;;;;;;7.88;4.45;;;;;;;17.37;100.00;100429.47;7664148;23;20025;-91
2022/08/01 03:10:02;;;;;;;6.88;4.70;;;;;;;17.39;100.00;100433.56;7663545;23;20021;-92
2022/08/01 03:13:07;;;;;;;7.65;4.68;;;;;;;17.40;100.00;100442.22;7638259;23;20060;-89
2022/08/01 03:16:11;;;;;;;4.32;2.70;;;;;;;17.31;100.00;100437.97;7663977;23;20032;-91
2022/08/01 03:19:15;;;;;;;5.80;3.78;;;;;;;17.23;100.00;100433.59;7612131;23;20503;-91
2022/08/01 03:22:18;;;;;;;4.78;3.75;;;;;;;17.25;100.00;100442.09;7662585;23;20459;-90
2022/08/01 03:25:21;;;;;;;6.07;4.10;;;;;;;17.28;100.00;100443.56;7611311;23;20115;-92
2022/08/01 03:28:25;;;;;;;7.72;3.97;;;;;;;17.27;100.00;100447.97;7666419;23;20021;-92
2022/08/01 03:31:30;;;;;;;4.55;3.72;;;;;;;17.27;100.00;100453.22;7660281;23;20448;-91
2022/08/01 03:34:33;;;;;;;5.05;4.18;;;;;;;17.23;100.00;100457.13;7662886;23;20017;-91
2022/08/01 03:37:45;;;;;;;6.57;4.15;;;;;;;17.20;100.00;100463.50;7637114;23;20037;-89
2022/08/01 03:41:15;;;;;;;7.25;4.18;;;;;;;17.20;100.00;100465.31;7663556;23;20044;-91
2022/08/01 03:44:22;;;;;;;4.70;3.65;;;;;;;17.19;100.00;100467.13;7665613;23;20099;-89
2022/08/01 03:47:33;;;;;;;4.75;4.00;;;;;;;17.18;100.00;100456.81;7663727;23;20129;-92
2022/08/01 03:50:50;;;;;;;5.85;3.85;;;;;;;17.17;100.00;100457.81;7641210;23;20459;-93
2022/08/01 03:53:54;;;;;;;6.20;3.78;;;;;;;17.14;100.00;100458.13;7666266;23;20438;-91
2022/08/01 03:56:58;;;;;;;5.57;4.07;;;;;;;17.13;100.00;100465.16;7664248;23;20032;-91
2022/08/01 04:00:00;;;;;;;5.30;3.75;;;;;;;17.07;100.00;100467.59;7665263;23;20032;-90
2022/08/01 04:03:13;;;;;;;5.47;4.13;;;;;;;17.04;100.00;100478.41;7663092;23;20886;-93
2022/08/01 04:06:15;;;;;;;4.30;3.63;;;;;;;17.02;100.00;100470.75;7664277;23;20028;-93
2022/08/01 04:09:17;;;;;;;4.10;3.50;;;;;;;16.98;100.00;100469.44;7666025;23;20021;-93
2022/08/01 04:12:20;;;;;;;5.13;3.90;;;;;;;16.99;100.00;100482.34;7664635;23;20507;-93
2022/08/01 04:15:22;;;;;;;5.15;3.60;;;;;;;17.04;100.00;100489.69;7666173;23;20020;-92
2022/08/01 04:18:24;;;;;;;4.57;3.88;;;;;;;17.08;100.00;100484.94;7665711;23;20092;-92
2022/08/01 04:21:29;;;;;;;4.80;3.67;;;;;;;17.09;100.00;100478.72;7665523;23;20028;-92
2022/08/01 04:24:35;;;;;;;5.72;4.00;;;;;;;17.12;100.00;100478.41;7664235;23;20364;-94
2022/08/01 04:27:39;;;;;;;4.40;3.20;;;;;;;17.13;100.00;100493.13;7640589;23;20021;-94
2022/08/01 04:30:55;;;;;;;5.00;3.42;;;;;;;17.17;100.00;100487.41;7615562;23;20029;-95
2022/08/01 04:34:05;;;;;;;5.75;3.60;;;;;;;17.27;100.00;100483.78;7643455;23;20036;-94
2022/08/01 04:37:21;;;;;;;5.35;4.18;;;;;;;17.29;100.00;100490.50;7664956;23;20511;-94
2022/08/01 04:40:26;;;;;;;7.63;4.72;;;;;;;17.30;100.00;100497.34;7638518;23;20028;-96
2022/08/01 04:43:28;;;;;;;7.22;5.47;;;;;;;17.37;100.00;100508.78;7666906;23;20617;-95
2022/08/01 04:46:32;;;;;;;7.78;5.85;;;;;;;17.49;100.00;100511.03;7678563;23;20015;-96
2022/08/01 04:49:35;;;;;;;8.77;5.65;;;;;;;17.51;100.00;100506.47;7677261;23;20507;-96
2022/08/01 04:52:51;;;;;;;8.52;6.50;;;;;;;17.57;100.00;100511.06;7672538;23;20021;-96
2022/08/01 04:55:54;;;;;;;7.82;5.90;;;;;;;17.52;100.00;100513.34;7640991;23;20028;-94
2022/08/01 05:02:21;;;;;;;6.80;4.85;;;;;;;17.52;100.00;100516.78;7665051;23;20444;-93
2022/08/01 05:05:23;;;;;;;6.45;4.90;;;;;;;17.58;100.00;100528.38;7663464;23;20056;-92
2022/08/01 05:08:25;;;;;;;7.22;5.03;;;;;;;17.51;100.00;100522.16;7669990;23;20032;-93
2022/08/01 05:11:27;;;;;;;4.45;3.97;;;;;;;17.46;100.00;100534.94;7668834;23;20308;-93
2022/08/01 05:14:33;;;;;;;5.10;4.00;;;;;;;17.50;100.00;100537.06;7639520;23;20028;-96
2022/08/01 05:17:34;;;;;;;6.13;4.30;;;;;;;17.60;100.00;100537.69;7640863;23;20027;-93
2022/08/01 05:20:36;;;;;;;5.55;4.45;;;;;;;17.67;100.00;100539.66;7662962;23;20036;-95
2022/08/01 05:23:38;;;;;;;6.63;4.80;;;;;;;17.70;100.00;100542.75;7638089;23;20049;-92
2022/08/01 05:26:44;;;;;;;6.13;4.28;;;;;;;17.64;100.00;100539.00;7664101;23;20352;-92
2022/08/01 05:29:48;;;;;;;5.65;4.22;;;;;;;17.58;100.00;100529.19;7664313;23;20044;-94
2022/08/01 05:32:50;;;;;;;4.18;3.30;;;;;;;17.58;100.00;100544.09;7664597;23;20104;-93
2022/08/01 05:35:52;;;;;;;4.20;3.00;;;;;;;17.63;100.00;100537.34;7614155;23;20483;-96
2022/08/01 05:38:54;;;;;;;3.28;2.97;;;;;;;17.66;100.00;100530.97;7666060;23;20025;-93
2022/08/01 05:41:56;;;;;;;4.28;3.10;;;;;;;17.68;100.00;100534.25;7639555;23;20028;-95
2022/08/01 05:44:58;;;;;;;3.83;3.20;;;;;;;17.70;100.00;100539.31;7667737;23;20518;-96
2022/08/01 05:48:00;;;;;;;4.60;3.40;;;;;;;17.71;100.00;100533.09;7642151;23;20072;-96
2022/08/01 05:51:03;;;;;;;5.10;3.58;;;;;;;17.73;100.00;100538.97;7643495;23;20025;-95
2022/08/01 05:54:05;;;;;;;6.03;4.20;;;;;;;17.76;100.00;100544.72;7641741;23;20032;-94
2022/08/01 05:57:07;;;;;;;5.40;4.15;;;;;;;17.81;100.00;100538.97;7639278;23;20155;-95
2022/08/01 06:00:09;;;;;;;6.18;3.85;;;;;;;17.80;100.00;100547.84;7666277;23;20021;-95
2022/08/01 06:03:18;;;;;;;6.22;4.60;;;;;;;17.83;100.00;100548.31;7648666;23;20021;-94
2022/08/01 06:06:21;;;;;;;6.78;4.40;;;;;;;17.85;100.00;100545.53;7643606;23;20074;-95
2022/08/01 06:09:26;;;;;;;6.15;3.92;;;;;;;17.93;100.00;100555.16;7667870;23;20017;-95
2022/08/01 06:12:28;;;;;;;6.65;4.50;;;;;;;17.97;100.00;100552.03;7619046;23;20166;-93
2022/08/01 06:15:36;;;;;;;9.02;4.70;;;;;;;18.00;100.00;100558.75;7677344;23;20083;-96
2022/08/01 06:18:39;;;;;;;6.40;4.63;;;;;;;17.94;100.00;100568.09;7655267;23;20013;-96
2022/08/01 06:21:40;;;;;;;8.55;4.60;;;;;;;17.92;100.00;100569.25;7671094;23;20060;-95
2022/08/01 06:24:42;;;;;;;6.45;4.50;;;;;;;17.83;100.00;100563.19;7654738;23;20027;-95
2022/08/01 06:27:44;;;;;;;5.13;4.10;;;;;;;17.80;100.00;100574.00;7640159;23;20025;-92
2022/08/01 06:30:46;;;;;;;7.03;4.28;;;;;;;17.70;100.00;100589.06;7666606;23;20152;-92
2022/08/01 06:33:47;;;;;;;7.95;4.20;;;;;;;17.57;100.00;100585.16;7667175;23;20463;-93
2022/08/01 06:36:49;;;;;;;5.53;4.28;;;;;;;17.54;100.00;100593.34;7669338;23;20550;-92
2022/08/01 06:39:51;;;;;;;5.78;3.28;;;;;;;17.55;100.00;100596.78;7668876;23;20021;-91
2022/08/01 06:42:53;;;;;;;1.70;1.48;;;;;;;17.44;100.00;100608.41;7668120;23;20017;-92
2022/08/01 06:45:55;;;;;;;1.65;1.20;;;;;;;17.35;100.00;100602.34;7640841;23;20295;-92
2022/08/01 06:48:56;;;;;;;5.53;1.70;;;;;;;17.27;100.00;100598.91;7640844;23;20029;-91
2022/08/01 06:51:58;;;;;;;2.35;1.35;;;;;;;17.35;100.00;100594.47;7666253;23;20021;-93
2022/08/01 06:55:01;;;;;;;2.38;1.60;;;;;;;17.47;100.00;100597.59;7667351;23;20440;-93
2022/08/01 06:58:02;;;;;;;1.58;1.45;;;;;;;17.61;100.00;100601.31;7666455;23;20025;-92
2022/08/01 07:01:11;;;;;;;1.58;1.48;;;;;;;17.73;100.00;100597.38;7667056;23;20443;-92
2022/08/01 07:04:13;;;;;;;2.65;1.65;;;;;;;17.79;100.00;100593.31;7666430;23;20053;-90
2022/08/01 07:07:15;;;;;;;2.95;1.90;;;;;;;17.82;100.00;100604.28;7640499;23;20530;-92
2022/08/01 07:10:17;;;;;;;2.88;1.90;;;;;;;17.96;100.00;100601.97;7666862;23;20021;-93
2022/08/01 07:13:22;;;;;;;2.33;1.98;;;;;;;18.05;100.00;100600.97;7667596;23;20423;-96
2022/08/01 07:16:37;;;;;;;4.43;2.33;;;;;;;18.23;100.00;100612.03;7643401;23;20025;-95
2022/08/01 07:19:39;;;;;;;2.42;2.22;;;;;;;18.37;100.00;100607.09;7670610;23;20017;-96
2022/08/01 07:22:41;;;;;;;2.75;2.10;;;;;;;18.56;100.00;100614.53;7682094;23;20040;-96
2022/08/01 07:25:43;;;;;;;2.95;2.22;;;;;;;18.71;100.00;100610.19;7634773;23;20020;-96
2022/08/01 07:28:53;;;;;;;2.30;2.10;;;;;;;18.82;100.00;100609.00;7670779;23;20475;-94
2022/08/01 07:31:57;;;;;;;3.63;2.25;;;;;;;18.80;100.00;100607.56;7665532;23;20388;-94
2022/08/01 07:35:00;;;;;;;3.42;2.25;;;;;;;18.77;100.00;100608.72;7664287;23;20031;-94
2022/08/01 07:38:02;;;;;;;2.88;2.58;;;;;;;18.93;100.00;100618.28;7666703;23;20462;-96
2022/08/01 07:41:05;;;;;;;5.53;2.50;;;;;;;19.12;100.00;100612.59;7639092;23;20560;-96
2022/08/01 07:44:06;;;;;;;3.08;1.75;;;;;;;19.32;100.00;100622.59;7668723;23;20028;-96
2022/08/01 07:47:08;;;;;;;2.40;1.60;;;;;;;19.38;100.00;100624.56;7666206;23;20470;-95
2022/08/01 07:50:10;;;;;;;2.10;1.75;;;;;;;19.26;100.00;100625.94;7667462;23;20522;-96
2022/08/01 07:53:12;;;;;;;1.70;1.60;;;;;;;18.98;100.00;100625.63;7679896;23;20049;-96
2022/08/01 07:56:14;;;;;;;1.67;1.40;;;;;;;18.84;100.00;100624.59;7654340;23;20024;-96
2022/08/01 07:59:22;;;;;;;1.48;1.13;;;;;;;18.87;100.00;100632.09;7633687;23;20028;-96
2022/08/01 08:02:27;;;;;;;1.45;1.27;;;;;;;19.05;100.00;100634.44;7643940;23;20111;-96
2022/08/01 08:05:35;;;;;;;3.83;1.63;;;;;;;19.21;100.00;100641.41;7701446;23;20020;-96
2022/08/01 08:08:57;;;;;;;1.65;1.48;;;;;;;19.19;100.00;100644.19;7715737;23;20124;-96
2022/08/01 08:11:59;;;;;;;2.67;1.60;;;;;;;19.07;100.00;100645.59;7732667;23;20023;-96
2022/08/01 08:15:08;;;;;;;2.20;1.13;;;;;;;18.97;100.00;100651.06;7737595;23;20012;-96
2022/08/01 08:18:10;;;;;;;1.23;1.20;;;;;;;18.80;100.00;100649.50;7699979;23;20111;-96
2022/08/01 08:21:12;;;;;;;1.65;1.10;;;;;;;19.01;100.00;100652.34;7725784;23;20012;-96
2022/08/01 08:24:20;;;;;;;1.33;1.00;;;;;;;19.46;100.00;100658.59;7700709;23;20028;-96
2022/08/01 08:27:27;;;;;;;1.10;1.00;;;;;;;19.78;100.00;100662.00;7697772;23;20028;-96
2022/08/01 08:30:30;;;;;;;1.23;1.13;;;;;;;19.92;100.00;100657.75;7696921;23;20025;-96
2022/08/01 08:33:32;;;;;;;2.72;1.35;;;;;;;20.14;100.00;100656.03;7677113;23;20092;-96
2022/08/01 08:36:35;;;;;;;1.95;1.20;;;;;;;20.38;100.00;100661.03;7696713;23;20035;-96
2022/08/01 08:39:42;;;;;;;1.92;1.38;;;;;;;20.64;100.00;100667.66;7687584;23;20098;-96
2022/08/01 08:42:46;;;;;;;1.75;1.20;;;;;;;20.84;100.00;100663.47;7709480;23;20091;-96
2022/08/01 08:45:48;;;;;;;1.33;1.10;;;;;;;20.79;100.00;100678.16;7710089;23;20522;-96
2022/08/01 08:49:03;;;;;;;1.88;1.30;;;;;;;20.88;100.00;100681.50;7686519;23;20459;-96
2022/08/01 08:52:07;;;;;;;1.85;1.30;;;;;;;20.86;100.00;100677.22;7683866;23;20099;-96
2022/08/01 08:55:14;;;;;;;2.75;1.25;;;;;;;20.91;100.00;100674.03;7711579;23;20093;-96
2022/08/01 08:58:18;;;;;;;1.75;1.20;;;;;;;21.16;100.00;100677.16;7705174;23;20016;-96
2022/08/01 09:01:20;;;;;;;1.70;1.20;;;;;;;21.24;100.00;100682.31;7703117;23;20455;-96
2022/08/01 09:04:25;;;;;;;1.30;1.20;;;;;;;21.03;100.00;100679.66;7715038;23;20032;-96
2022/08/01 09:07:27;;;;;;;1.65;1.40;;;;;;;20.66;100.00;100689.34;7682790;23;20017;-96
2022/08/01 09:10:29;;;;;;;2.22;1.10;;;;;;;20.56;100.00;100694.88;7676299;23;20686;-96
2022/08/01 09:13:32;;;;;;;3.78;1.20;;;;;;;20.72;100.00;100688.63;7676788;23;20505;-96
2022/08/01 09:16:36;;;;;;;1.80;1.23;;;;;;;20.78;100.00;100694.94;7650166;23;20463;-96
2022/08/01 09:19:43;;;;;;;2.55;1.15;;;;;;;20.71;100.00;100702.75;7676574;23;20023;-96
2022/08/01 09:22:45;;;;;;;1.83;1.60;;;;;;;20.63;100.00;100705.50;7709225;23;20489;-96
2022/08/01 09:25:52;;;;;;;2.00;0.95;;;;;;;20.37;100.00;100711.16;7677153;23;20020;-96
2022/08/01 09:29:03;;;;;;;2.28;0.95;;;;;;;20.09;100.00;100710.97;7680669;23;20347;-95
2022/08/01 09:32:06;;;;;;;2.53;1.13;;;;;;;19.95;100.00;100723.91;7704362;23;20328;-96
2022/08/01 09:35:31;;;;;;;3.17;1.40;;;;;;;20.34;100.00;100724.66;7702204;23;20023;-96
2022/08/01 09:38:45;;;;;;;1.95;1.25;;;;;;;20.88;100.00;100720.97;7679995;23;20055;-96
2022/08/01 09:41:56;;;;;;;1.25;1.15;;;;;;;21.31;100.00;100721.84;7678145;23;20601;-96
2022/08/01 09:44:57;;;;;;;1.75;1.00;;;;;;;21.73;100.00;100728.97;7674982;23;20025;-96
2022/08/01 09:48:06;;;;;;;1.20;1.00;;;;;;;22.24;100.00;100741.19;7702729;23;20031;-93
2022/08/01 09:51:12;;;;;;;1.27;0.90;;;;;;;22.32;100.00;100735.75;7677147;23;20471;-95
2022/08/01 09:54:34;;;;;;;2.53;0.80;;;;;;;22.38;100.00;100752.59;7702554;23;20025;-95
2022/08/01 09:57:37;;;;;;;0.82;0.70;;;;;;;22.25;100.00;100750.69;7703368;23;20016;-94
2022/08/01 10:00:40;;;;;;;2.05;0.60;;;;;;;22.08;100.00;100747.50;7701631;23;20029;-95
2022/08/01 10:03:46;;;;;;;0.85;0.60;;;;;;;21.90;100.00;100755.06;7677196;23;20031;-93
2022/08/01 10:06:58;;;;;;;0.65;0.65;;;;;;;21.50;100.00;100760.78;7675572;23;20407;-95
2022/08/01 10:10:15;;;;;;;1.50;1.40;;;;;;;21.63;100.00;100754.81;7702488;23;20028;-94
2022/08/01 10:13:17;;;;;;;2.10;1.90;;;;;;;21.85;100.00;100754.81;7675801;23;20021;-93
2022/08/01 10:16:20;;;;;;;2.42;2.22;;;;;;;21.97;100.00;100755.13;7701231;23;20471;-95
2022/08/01 10:19:24;;;;;;;2.58;1.40;;;;;;;22.05;100.00;100757.63;7675014;23;20028;-95
2022/08/01 10:22:31;;;;;;;3.05;1.95;;;;;;;22.21;100.00;100753.91;7702197;23;20020;-95
2022/08/01 10:25:41;;;;;;;2.70;2.00;;;;;;;22.19;100.00;100753.28;7675131;23;20168;-95
2022/08/01 10:28:48;;;;;;;3.03;2.25;;;;;;;22.25;100.00;100748.06;7674776;23;20039;-94
2022/08/01 10:31:51;;;;;;;4.43;2.60;;;;;;;22.43;100.00;100758.13;7675326;23;20115;-95
2022/08/01 10:34:54;;;;;;;3.28;2.05;;;;;;;22.74;100.00;100751.63;7702571;23;20024;-94
2022/08/01 10:37:57;;;;;;;3.35;2.08;;;;;;;22.84;100.00;100752.06;7701640;23;20399;-94
2022/08/01 10:41:02;;;;;;;2.95;2.30;;;;;;;23.08;100.00;100757.84;7701969;23;20024;-95
2022/08/01 10:44:09;;;;;;;3.40;2.75;;;;;;;23.14;100.00;100757.09;7675813;23;20048;-94
2022/08/01 10:47:13;;;;;;;2.88;2.40;;;;;;;23.33;100.00;100747.56;7704205;23;20115;-95
2022/08/01 10:50:31;;;;;;;4.43;2.95;;;;;;;23.22;99.28;100739.22;7703581;23;20024;-95
2022/08/01 10:53:33;;;;;;;;;;;;;;;23.26;100.00;100747.56;7704369;23;20020;-94
2022/08/01 10:56:49;;;;;;;4.05;2.65;;;;;;;23.54;98.41;100746.59;7702757;23;20266;-95
2022/08/01 10:59:53;;;;;;;4.07;2.60;;;;;;;23.68;96.01;100742.97;7677602;23;20016;-93
2022/08/01 11:03:03;;;;;;;3.00;2.50;;;;;;;23.17;94.83;100749.56;7676990;23;20036;-96
2022/08/01 11:06:06;;;;;;;3.47;2.35;;;;;;;22.48;100.00;100753.06;7652205;23;20719;-95
2022/08/01 11:09:21;;;;;;;6.00;2.70;;;;;;;21.97;100.00;100750.69;7703333;23;20024;-94
2022/08/01 11:12:38;;;;;;;4.45;2.45;;;;;;;21.90;100.00;100749.81;7703492;23;20027;-93
2022/08/01 11:15:41;;;;;;;4.63;2.40;;;;;;;22.05;100.00;100755.00;7703263;23;20163;-96
2022/08/01 11:18:54;;;;;;;3.65;2.10;;;;;;;22.37;100.00;100751.00;7704820;23;20021;-95
2022/08/01 11:22:03;;;;;;;4.50;2.60;;;;;;;22.76;97.02;100762.78;7651607;23;20036;-96
2022/08/01 11:25:05;;;;;;;5.20;2.73;;;;;;;23.27;96.51;100762.41;7649994;23;20553;-96
2022/08/01 11:28:15;;;;;;;2.92;2.10;;;;;;;23.65;91.62;100767.97;7704108;23;20074;-96
2022/08/01 11:31:31;;;;;;;2.95;2.38;;;;;;;23.89;89.95;100771.06;7703966;23;20537;-96
2022/08/01 11:34:58;;;;;;;5.03;2.22;;;;;;;23.63;88.63;100775.28;7711689;23;20020;-96
2022/08/01 11:38:33;;;;;;;4.15;2.38;;;;;;;23.06;90.02;100773.91;7683695;23;20020;-96
2022/08/01 11:41:38;;;;;;;3.78;2.30;;;;;;;22.94;90.56;100772.81;7725974;23;20043;-96
2022/08/01 11:44:54;;;;;;;4.32;2.50;;;;;;;23.12;89.03;100774.94;7711302;23;20055;-96
2022/08/01 11:47:58;;;;;;;2.70;2.10;;;;;;;23.26;88.04;100774.00;7703773;23;20025;-93
2022/08/01 11:51:00;;;;;;;5.15;2.47;;;;;;;23.25;89.79;100764.41;7651560;23;20420;-94
2022/08/01 11:54:03;;;;;;;2.10;1.90;;;;;;;23.47;85.79;100772.19;7676322;23;20350;-95
2022/08/01 11:57:11;;;;;;;4.13;2.17;;;;;;;23.37;87.26;100762.00;7704329;23;20024;-96
2022/08/01 12:00:16;;;;;;;5.47;2.40;;;;;;;22.99;87.21;100775.72;7704186;23;20427;-93
2022/08/01 12:03:31;;;;;;;3.83;2.20;;;;;;;22.62;87.66;100777.72;7676810;23;20024;-96
2022/08/01 12:06:35;;;;;;;3.53;2.50;;;;;;;22.40;89.93;100779.63;7703949;23;20092;-93
2022/08/01 12:09:37;;;;;;;3.95;2.35;;;;;;;22.43;90.23;100776.59;7702985;23;20119;-93
2022/08/01 12:13:00;;;;;;;5.35;2.38;;;;;;;23.00;88.01;100782.59;7677370;23;20021;-93
2022/08/01 12:16:07;;;;;;;4.55;2.58;;;;;;;23.32;89.93;100775.00;7703238;23;20020;-91
2022/08/01 12:19:10;;;;;;;6.50;2.30;;;;;;;23.51;82.50;100773.44;7676114;23;20023;-93
2022/08/01 12:22:13;;;;;;;5.45;2.63;;;;;;;23.71;82.23;100776.94;7703787;23;20020;-92
2022/08/01 12:25:17;;;;;;;4.45;2.40;;;;;;;23.90;79.96;100775.34;7704040;23;20223;-93
2022/08/01 12:28:19;;;;;;;4.80;2.42;;;;;;;24.17;77.80;100778.78;7675128;23;20024;-93
2022/08/01 12:31:31;;;;;;;5.15;2.85;;;;;;;24.46;76.37;100774.91;7650283;23;20028;-93
2022/08/01 12:34:34;;;;;;;5.63;2.50;;;;;;;24.53;75.21;100776.75;7702603;23;20020;-91
2022/08/01 12:37:44;;;;;;;7.15;3.10;;;;;;;24.54;74.48;100778.38;7703894;23;20075;-92
2022/08/01 12:40:47;;;;;;;5.55;2.30;;;;;;;24.79;71.81;100779.31;7674821;23;20187;-93
2022/08/01 12:43:55;;;;;;;5.68;2.15;;;;;;;25.00;70.04;100783.53;7697919;23;20475;-93
2022/08/01 12:47:00;;;;;;;6.45;2.65;;;;;;;25.29;67.33;100782.22;7671564;23;20075;-92
2022/08/01 12:50:03;;;;;;;5.07;2.40;;;;;;;25.38;65.71;100784.59;7702477;23;20163;-93
2022/08/01 12:53:06;;;;;;;2.75;2.40;;;;;;;25.03;67.76;100782.28;7675795;23;20367;-92
2022/08/01 12:56:09;;;;;;;7.15;2.67;;;;;;;24.92;71.72;100784.56;7701000;23;20174;-96
2022/08/01 12:59:27;;;;;;;4.80;2.45;;;;;;;24.82;69.27;100780.72;7672686;23;20025;-91
2022/08/01 13:02:36;;;;;;;5.40;2.83;;;;;;;24.52;70.39;100772.47;7675441;23;20059;-92
2022/08/01 13:05:58;;;;;;;3.40;2.60;;;;;;;24.26;72.16;100777.56;7700768;23;20352;-92
2022/08/01 13:09:11;;;;;;;5.13;2.42;;;;;;;24.16;69.43;100779.81;7675739;23;20834;-91
2022/08/01 13:12:13;;;;;;;5.82;3.00;;;;;;;24.11;71.12;100782.25;7649886;23;20028;-92
2022/08/01 13:15:24;;;;;;;4.68;3.00;;;;;;;24.56;70.62;100779.78;7698876;23;20016;-92
2022/08/01 13:18:27;;;;;;;7.47;3.33;;;;;;;24.93;69.32;100783.53;7701629;23;20597;-92
2022/08/01 13:21:29;;;;;;;4.95;2.92;;;;;;;24.95;67.91;100783.34;7698910;23;20017;-92
2022/08/01 13:24:51;;;;;;;4.88;3.13;;;;;;;24.91;66.35;100777.63;7677384;23;20115;-92
2022/08/01 13:28:16;;;;;;;6.00;2.92;;;;;;;24.99;67.94;100789.81;7698233;23;20439;-92
2022/08/01 13:31:18;;;;;;;5.50;3.63;;;;;;;24.98;67.93;100784.75;7699290;23;20365;-94
2022/08/01 13:34:30;;;;;;;4.43;3.50;;;;;;;25.14;65.44;100795.69;7701418;23;20423;-93
2022/08/01 13:37:32;;;;;;;4.72;3.45;;;;;;;25.20;65.05;100775.53;7700336;23;20020;-93
2022/08/01 13:40:35;;;;;;;7.95;4.20;;;;;;;25.11;64.81;100780.19;7700757;23;20020;-93
2022/08/01 13:43:37;;;;;;;4.60;3.42;;;;;;;24.87;65.84;100781.75;7673684;23;20031;-94
2022/08/01 13:47:00;;;;;;;8.45;4.50;;;;;;;24.99;63.89;100784.53;7699623;23;20099;-92
2022/08/01 13:50:02;;;;;;;7.97;4.43;;;;;;;25.31;64.66;100781.97;7697419;23;20024;-93
2022/08/01 13:53:09;;;;;;;8.65;4.15;;;;;;;26.23;65.08;100781.53;7669501;23;20637;-94
2022/08/01 13:56:11;;;;;;;4.93;4.00;;;;;;;26.84;59.66;100780.72;7697349;23;20118;-96
2022/08/01 13:59:14;;;;;;;7.05;3.95;;;;;;;27.10;58.23;100776.91;7698364;23;20017;-93
2022/08/01 14:02:16;;;;;;;8.30;4.30;;;;;;;27.42;55.96;100780.19;7698149;23;20016;-93
2022/08/01 14:05:17;;;;;;;6.20;3.15;;;;;;;27.51;55.02;100783.34;7696551;23;20024;-91
2022/08/01 14:08:22;;;;;;;7.70;4.60;;;;;;;27.44;55.36;100774.66;7669929;23;20028;-92
2022/08/01 14:11:25;;;;;;;5.72;3.55;;;;;;;27.13;54.62;100776.50;7672085;23;20320;-92
2022/08/01 14:14:38;;;;;;;7.72;3.97;;;;;;;26.48;57.64;100782.31;7670690;23;20017;-93
2022/08/01 14:17:40;;;;;;;7.00;3.55;;;;;;;25.80;59.99;100785.75;7699611;23;20479;-93
2022/08/01 14:20:48;;;;;;;6.95;3.83;;;;;;;25.30;59.86;100781.16;7698933;23;20352;-90
2022/08/01 14:23:54;;;;;;;7.63;3.47;;;;;;;24.89;63.55;100786.81;7699210;23;20023;-93